createdAt,value
2023-02-27T00:00:16.671Z,5.20
2023-02-27T00:03:03.725Z,5.50
2023-02-27T00:05:31.184Z,6.10
2023-02-27T00:07:58.234Z,4.70
2023-02-27T00:10:25.281Z,4.70
2023-02-27T00:12:52.484Z,10.40
2023-02-27T00:15:20.344Z,21.70
2023-02-27T00:17:47.385Z,8.50
2023-02-27T00:20:17.131Z,5.90
2023-02-27T00:22:45.870Z,5.40
2023-02-27T00:25:14.050Z,7.20
2023-02-27T00:27:42.217Z,6.90
2023-02-27T00:30:12.389Z,6.20
2023-02-27T00:32:40.407Z,5.60
2023-02-27T00:35:09.820Z,6.40
2023-02-27T00:37:37.699Z,6.90
2023-02-27T00:40:06.551Z,6.50
2023-02-27T00:42:34.602Z,5.80
2023-02-27T00:45:02.995Z,6.70
2023-02-27T00:47:32.209Z,6.10
2023-02-27T00:49:59.425Z,6.90
2023-02-27T00:52:27.086Z,8.00
2023-02-27T00:54:54.206Z,5.40
2023-02-27T00:57:21.541Z,5.10
2023-02-27T00:59:50.403Z,7.10
2023-02-27T01:02:17.725Z,10.30
2023-02-27T01:04:45.012Z,13.00
2023-02-27T01:07:12.241Z,7.10
2023-02-27T01:09:39.533Z,13.60
2023-02-27T01:12:07.986Z,7.20
2023-02-27T01:14:35.102Z,7.50
2023-02-27T01:17:03.278Z,5.80
2023-02-27T01:19:31.889Z,5.70
2023-02-27T01:21:59.052Z,7.30
2023-02-27T01:24:26.760Z,6.80
2023-02-27T01:26:53.880Z,5.70
2023-02-27T01:29:20.958Z,6.80
2023-02-27T01:31:49.243Z,8.00
2023-02-27T01:34:17.148Z,7.70
2023-02-27T01:36:44.582Z,7.20
2023-02-27T01:39:11.735Z,9.90
2023-02-27T01:41:40.953Z,11.90
2023-02-27T01:44:11.868Z,12.10
2023-02-27T01:46:39.757Z,10.30
2023-02-27T01:49:13.448Z,6.30
2023-02-27T01:51:46.435Z,7.50
2023-02-27T01:54:17.983Z,6.90
2023-02-27T01:56:45.415Z,9.50
2023-02-27T01:59:15.358Z,5.20
2023-02-27T02:01:43.146Z,13.50
2023-02-27T02:04:22.609Z,5.40
2023-02-27T02:06:58.286Z,7.00
2023-02-27T02:11:54.766Z,3.50
2023-02-27T02:14:21.846Z,6.50
2023-02-27T02:17:12.781Z,4.10
2023-02-27T02:19:58.737Z,3.80
2023-02-27T02:23:11.433Z,3.50
2023-02-27T02:25:48.286Z,4.80
2023-02-27T02:28:43.488Z,5.20
2023-02-27T02:31:19.440Z,5.10
2023-02-27T02:34:16.141Z,8.90
2023-02-27T02:39:42.083Z,6.20
2023-02-27T02:42:22.223Z,5.80
2023-02-27T02:45:00.321Z,4.70
2023-02-27T02:47:49.514Z,5.10
2023-02-27T02:50:29.098Z,3.80
2023-02-27T02:53:31.064Z,3.80
2023-02-27T02:56:11.432Z,3.80
2023-02-27T02:58:43.473Z,3.80
2023-02-27T03:01:22.128Z,4.10
2023-02-27T03:03:56.901Z,4.60
2023-02-27T03:06:30.954Z,4.00
2023-02-27T03:09:22.382Z,4.40
2023-02-27T03:11:52.941Z,4.50
2023-02-27T03:14:26.178Z,4.90
2023-02-27T03:16:55.967Z,5.10
2023-02-27T03:19:33.792Z,6.00
2023-02-27T03:22:15.458Z,4.10
2023-02-27T03:25:12.469Z,3.90
2023-02-27T03:27:53.171Z,3.90
2023-02-27T03:30:33.219Z,4.20
2023-02-27T03:33:19.122Z,7.10
2023-02-27T03:36:08.390Z,7.20
2023-02-27T03:38:51.970Z,3.70
2023-02-27T03:41:34.404Z,3.30
2023-02-27T03:44:36.963Z,3.30
2023-02-27T03:47:04.316Z,4.00
2023-02-27T03:49:32.031Z,7.20
2023-02-27T03:51:59.546Z,5.20
2023-02-27T03:54:34.711Z,3.60
2023-02-27T03:57:05.520Z,4.20
2023-02-27T03:59:33.971Z,3.80
2023-02-27T04:02:02.800Z,5.00
2023-02-27T04:04:32.210Z,3.70
2023-02-27T04:07:37.788Z,4.30
2023-02-27T04:10:20.401Z,3.90
2023-02-27T04:13:02.906Z,4.70
2023-02-27T04:15:48.736Z,4.60
2023-02-27T04:18:37.816Z,5.60
2023-02-27T04:21:14.543Z,5.30
2023-02-27T04:23:47.378Z,5.70
2023-02-27T04:26:36.997Z,7.00
2023-02-27T04:29:45.860Z,7.30
2023-02-27T04:32:22.473Z,6.90
2023-02-27T04:34:55.830Z,8.20
2023-02-27T04:37:27.591Z,7.40
2023-02-27T04:40:02.024Z,7.90
2023-02-27T04:42:40.993Z,6.70
2023-02-27T04:45:11.884Z,5.80
2023-02-27T04:47:57.880Z,5.80
2023-02-27T04:50:33.089Z,7.40
2023-02-27T04:53:16.450Z,8.00
2023-02-27T04:55:49.991Z,11.60
2023-02-27T04:58:40.930Z,11.60
2023-02-27T05:01:39.990Z,9.50
2023-02-27T05:04:12.557Z,10.40
2023-02-27T05:06:43.516Z,10.10
2023-02-27T05:09:41.235Z,10.20
2023-02-27T05:12:28.869Z,11.10
2023-02-27T05:15:22.664Z,11.40
2023-02-27T05:18:02.021Z,12.70
2023-02-27T05:20:40.289Z,13.20
2023-02-27T05:23:25.457Z,23.50
2023-02-27T05:26:02.332Z,49.70
2023-02-27T05:28:42.613Z,45.40
2023-02-27T05:31:18.693Z,50.70
2023-02-27T05:33:53.384Z,79.80
2023-02-27T05:36:30.768Z,54.10
2023-02-27T05:39:04.657Z,34.00
2023-02-27T05:41:44.992Z,28.80
2023-02-27T05:44:17.461Z,39.40
2023-02-27T05:47:05.319Z,71.50
2023-02-27T05:49:37.549Z,69.90
2023-02-27T05:52:10.711Z,21.30
2023-02-27T05:54:59.346Z,30.90
2023-02-27T05:57:41.164Z,22.50
2023-02-27T06:00:17.831Z,18.20
2023-02-27T06:02:45.506Z,21.10
2023-02-27T06:05:17.883Z,34.50
2023-02-27T06:07:45.036Z,49.20
2023-02-27T06:10:17.581Z,55.50
2023-02-27T06:12:44.908Z,54.00
2023-02-27T06:15:13.162Z,52.10
2023-02-27T06:17:40.442Z,35.40
2023-02-27T06:20:08.654Z,28.50
2023-02-27T06:22:36.038Z,33.70
2023-02-27T06:25:03.698Z,29.70
2023-02-27T06:27:30.856Z,30.20
2023-02-27T06:29:57.936Z,46.30
2023-02-27T06:32:28.152Z,52.40
2023-02-27T06:34:55.411Z,33.40
2023-02-27T06:37:22.632Z,32.00
2023-02-27T06:39:49.805Z,29.60
2023-02-27T06:42:17.012Z,17.90
2023-02-27T06:44:44.209Z,21.10
2023-02-27T06:47:11.280Z,17.80
2023-02-27T06:49:38.296Z,19.50
2023-02-27T06:52:05.399Z,21.70
2023-02-27T06:54:32.503Z,33.30
2023-02-27T06:57:00.111Z,52.50
2023-02-27T06:59:27.295Z,29.80
2023-02-27T07:01:54.449Z,15.30
2023-02-27T07:04:21.596Z,11.80
2023-02-27T07:07:35.109Z,11.90
2023-02-27T07:09:36.449Z,17.00
2023-02-27T07:12:04.960Z,11.00
2023-02-27T07:14:32.597Z,11.00
2023-02-27T07:17:03.424Z,12.30
2023-02-27T07:19:32.527Z,28.30
2023-02-27T07:21:59.843Z,18.60
2023-02-27T07:24:26.978Z,23.00
2023-02-27T07:26:54.136Z,17.80
2023-02-27T07:29:21.301Z,13.90
2023-02-27T07:31:48.746Z,12.90
2023-02-27T07:34:16.121Z,15.30
2023-02-27T07:36:43.642Z,17.60
2023-02-27T07:39:13.046Z,22.00
2023-02-27T07:41:40.828Z,26.30
2023-02-27T07:44:11.570Z,35.10
2023-02-27T07:46:38.773Z,74.40
2023-02-27T07:49:05.817Z,71.60
2023-02-27T07:51:32.937Z,30.40
2023-02-27T07:53:59.987Z,23.30
2023-02-27T07:56:27.627Z,16.90
2023-02-27T07:58:55.314Z,10.80
2023-02-27T08:01:22.389Z,9.40
2023-02-27T08:03:49.524Z,10.90
2023-02-27T08:06:16.661Z,20.10
2023-02-27T08:08:43.794Z,9.30
2023-02-27T08:11:11.531Z,10.40
2023-02-27T08:16:26.742Z,9.00
2023-02-27T08:18:54.470Z,14.10
2023-02-27T08:21:21.696Z,28.80
2023-02-27T08:23:48.912Z,27.60
2023-02-27T08:26:16.016Z,24.70
2023-02-27T08:28:43.531Z,73.40
2023-02-27T08:31:10.909Z,53.70
2023-02-27T08:33:37.985Z,29.70
2023-02-27T08:36:05.739Z,19.40
2023-02-27T08:38:33.040Z,30.60
2023-02-27T08:41:00.169Z,51.00
2023-02-27T08:43:27.322Z,20.70
2023-02-27T08:45:54.555Z,9.80
2023-02-27T08:48:24.385Z,14.80
2023-02-27T08:50:52.507Z,10.10
2023-02-27T08:53:19.755Z,10.00
2023-02-27T08:55:51.466Z,13.50
2023-02-27T08:58:18.617Z,10.70
2023-02-27T09:00:46.595Z,13.60
2023-02-27T09:03:14.166Z,20.50
2023-02-27T09:05:42.314Z,23.90
2023-02-27T09:08:09.853Z,16.10
2023-02-27T09:10:37.156Z,18.20
2023-02-27T09:13:04.551Z,19.20
2023-02-27T09:15:34.502Z,18.40
2023-02-27T09:18:03.366Z,33.90
2023-02-27T09:20:31.888Z,17.90
2023-02-27T09:22:59.842Z,20.10
2023-02-27T09:25:27.999Z,19.40
2023-02-27T09:27:55.925Z,16.20
2023-02-27T09:30:23.503Z,8.40
2023-02-27T09:32:51.279Z,13.90
2023-02-27T09:35:20.604Z,16.20
2023-02-27T09:37:49.710Z,8.50
2023-02-27T09:40:26.392Z,6.90
2023-02-27T09:42:58.283Z,4.50
2023-02-27T09:45:31.940Z,9.30
2023-02-27T09:48:15.931Z,5.60
2023-02-27T09:50:45.637Z,7.80
2023-02-27T09:53:17.274Z,3.60
2023-02-27T09:55:46.186Z,3.10
2023-02-27T09:58:31.845Z,3.10
2023-02-27T10:01:31.169Z,1.70
2023-02-27T10:04:16.296Z,2.20
2023-02-27T10:06:45.573Z,2.30
2023-02-27T10:09:30.965Z,2.60
2023-02-27T10:12:19.777Z,12.90
2023-02-27T10:14:54.722Z,29.50
2023-02-27T10:17:28.040Z,7.80
2023-02-27T10:19:56.652Z,4.10
2023-02-27T10:22:31.813Z,9.30
2023-02-27T10:25:08.983Z,7.00
2023-02-27T10:27:40.173Z,9.00
2023-02-27T10:30:30.052Z,15.40
2023-02-27T10:33:07.611Z,7.80
2023-02-27T10:35:38.474Z,8.50
2023-02-27T10:38:32.313Z,5.90
2023-02-27T10:41:00.671Z,5.60
2023-02-27T10:43:27.920Z,6.30
2023-02-27T10:45:55.104Z,3.80
2023-02-27T10:48:23.224Z,6.10
2023-02-27T10:50:52.328Z,3.80
2023-02-27T10:53:22.639Z,4.50
2023-02-27T10:56:08.220Z,3.50
2023-02-27T10:58:36.680Z,3.50
2023-02-27T11:01:06.968Z,4.30
2023-02-27T11:03:39.320Z,2.70
2023-02-27T11:06:12.352Z,5.70
2023-02-27T11:08:39.918Z,5.10
2023-02-27T11:11:10.225Z,6.60
2023-02-27T11:13:40.798Z,5.60
2023-02-27T11:16:17.355Z,3.90
2023-02-27T11:18:46.662Z,2.90
2023-02-27T11:21:23.080Z,6.40
2023-02-27T11:24:01.504Z,12.20
2023-02-27T11:26:30.375Z,6.50
2023-02-27T11:29:20.352Z,6.70
2023-02-27T11:32:00.244Z,6.00
2023-02-27T11:34:32.590Z,16.50
2023-02-27T11:37:03.767Z,16.30
2023-02-27T11:39:39.210Z,8.70
2023-02-27T11:42:22.014Z,9.10
2023-02-27T11:45:02.862Z,12.70
2023-02-27T11:47:37.374Z,29.80
2023-02-27T11:50:31.413Z,10.30
2023-02-27T11:53:26.319Z,13.90
2023-02-27T11:55:56.399Z,11.60
2023-02-27T11:58:28.432Z,15.00
2023-02-27T12:01:04.083Z,17.80
2023-02-27T12:06:19.095Z,7.20
2023-02-27T12:08:57.757Z,14.50
2023-02-27T12:11:46.072Z,5.00
2023-02-27T12:14:27.544Z,6.70
2023-02-27T12:17:03.172Z,6.30
2023-02-27T12:19:37.853Z,4.70
2023-02-27T12:22:16.107Z,8.00
2023-02-27T12:24:56.110Z,9.10
2023-02-27T12:27:29.606Z,9.70
2023-02-27T12:30:05.614Z,7.30
2023-02-27T12:32:43.106Z,19.10
2023-02-27T12:35:19.884Z,4.10
2023-02-27T12:37:47.673Z,5.30
2023-02-27T12:40:19.868Z,7.60
2023-02-27T12:42:53.979Z,15.50
2023-02-27T12:45:52.063Z,17.70
2023-02-27T12:48:33.795Z,19.10
2023-02-27T12:51:22.167Z,10.70
2023-02-27T12:54:03.044Z,12.10
2023-02-27T12:56:45.703Z,8.40
2023-02-27T12:59:38.148Z,7.60
2023-02-27T13:02:36.227Z,40.50
2023-02-27T13:05:16.347Z,12.40
2023-02-27T13:08:04.859Z,4.60
2023-02-27T13:10:36.790Z,5.00
2023-02-27T13:13:14.063Z,4.00
2023-02-27T13:16:04.970Z,5.50
2023-02-27T13:18:50.977Z,6.30
2023-02-27T13:21:24.076Z,6.20
2023-02-27T13:24:16.189Z,3.60
2023-02-27T13:26:58.873Z,3.40
2023-02-27T13:29:34.998Z,4.70
2023-02-27T13:32:10.241Z,2.80
2023-02-27T13:34:41.862Z,4.90
2023-02-27T13:37:10.059Z,6.20
2023-02-27T13:39:44.106Z,11.10
2023-02-27T13:42:29.034Z,13.30
2023-02-27T13:44:57.394Z,18.20
2023-02-27T13:47:33.187Z,13.00
2023-02-27T13:50:02.918Z,110.10
2023-02-27T13:52:32.717Z,112.70
2023-02-27T13:55:11.313Z,52.90
2023-02-27T13:57:39.439Z,143.90
2023-02-27T14:00:24.869Z,82.10
2023-02-27T14:03:00.495Z,89.20
2023-02-27T14:05:40.367Z,261.20
2023-02-27T14:08:29.641Z,88.70
2023-02-27T14:11:21.341Z,58.60
2023-02-27T14:13:59.173Z,13.60
2023-02-27T14:16:39.160Z,6.90
2023-02-27T14:19:15.375Z,6.40
2023-02-27T14:21:52.920Z,6.40
2023-02-27T14:24:25.605Z,9.30
2023-02-27T14:26:54.133Z,22.00
2023-02-27T14:29:25.913Z,25.60
2023-02-27T14:31:54.739Z,25.40
2023-02-27T14:34:23.062Z,11.10
2023-02-27T14:36:52.771Z,14.70
2023-02-27T14:39:33.759Z,15.10
2023-02-27T14:42:32.195Z,13.00
2023-02-27T14:45:00.005Z,10.00
2023-02-27T14:47:33.804Z,13.40
2023-02-27T14:50:02.310Z,8.00
2023-02-27T14:52:32.386Z,11.10
2023-02-27T14:55:22.140Z,16.10
2023-02-27T14:57:58.624Z,46.40
2023-02-27T15:00:39.764Z,31.80
2023-02-27T15:03:25.935Z,17.20
2023-02-27T15:08:25.789Z,16.90
2023-02-27T15:10:54.475Z,12.20
2023-02-27T15:13:31.234Z,16.30
2023-02-27T15:16:26.436Z,12.90
2023-02-27T15:18:57.404Z,16.70
2023-02-27T15:21:27.838Z,14.10
2023-02-27T15:24:03.890Z,30.00
2023-02-27T15:26:39.101Z,15.50
2023-02-27T15:29:08.563Z,19.40
2023-02-27T15:31:36.051Z,19.50
2023-02-27T15:34:04.062Z,26.10
2023-02-27T15:36:34.750Z,30.30
2023-02-27T15:39:06.133Z,14.30
2023-02-27T15:41:33.937Z,19.20
2023-02-27T15:44:02.653Z,34.70
2023-02-27T15:46:30.476Z,19.80
2023-02-27T15:48:58.228Z,16.50
2023-02-27T15:51:28.076Z,23.50
2023-02-27T15:54:00.501Z,23.00
2023-02-27T15:56:33.809Z,15.40
2023-02-27T15:59:01.784Z,27.30
2023-02-27T16:01:39.033Z,26.40
2023-02-27T16:04:20.693Z,13.60
2023-02-27T16:06:58.632Z,15.90
2023-02-27T16:09:30.569Z,12.40
2023-02-27T16:12:37.186Z,43.20
2023-02-27T16:15:23.352Z,38.00
2023-02-27T16:20:47.810Z,20.00
2023-02-27T16:23:29.446Z,15.40
2023-02-27T16:26:23.610Z,17.30
2023-02-27T16:28:51.494Z,17.30
2023-02-27T16:31:25.263Z,28.20
2023-02-27T16:33:53.955Z,24.00
2023-02-27T16:36:23.824Z,28.00
2023-02-27T16:38:51.310Z,20.20
2023-02-27T16:41:20.678Z,27.00
2023-02-27T16:43:49.299Z,23.70
2023-02-27T16:46:21.874Z,21.10
2023-02-27T16:48:51.286Z,32.70
2023-02-27T16:51:23.367Z,72.80
2023-02-27T16:53:53.952Z,89.20
2023-02-27T16:56:35.865Z,172.70
2023-02-27T16:59:04.868Z,232.40
2023-02-27T17:01:33.947Z,200.70
2023-02-27T17:04:01.573Z,113.30
2023-02-27T17:06:29.141Z,112.70
2023-02-27T17:08:58.024Z,134.10
2023-02-27T17:11:25.241Z,182.40
2023-02-27T17:13:52.368Z,134.20
2023-02-27T17:16:19.449Z,160.60
2023-02-27T17:18:46.608Z,120.30
2023-02-27T17:21:13.819Z,104.00
2023-02-27T17:23:40.917Z,125.00
2023-02-27T17:26:08.193Z,97.40
2023-02-27T17:28:35.285Z,82.20
2023-02-27T17:31:03.356Z,91.50
2023-02-27T17:33:31.926Z,80.20
2023-02-27T17:36:07.321Z,66.70
2023-02-27T17:38:34.924Z,53.40
2023-02-27T17:41:09.859Z,49.10
2023-02-27T17:43:37.238Z,51.30
2023-02-27T17:46:08.594Z,44.40
2023-02-27T17:48:37.656Z,35.10
2023-02-27T17:51:07.312Z,31.20
2023-02-27T17:53:35.805Z,24.50
2023-02-27T17:56:03.841Z,18.60
2023-02-27T17:58:31.668Z,14.30
2023-02-27T18:01:09.343Z,16.10
2023-02-27T18:03:36.460Z,22.80
2023-02-27T18:06:04.652Z,24.50
2023-02-27T18:08:33.273Z,29.20
2023-02-27T18:11:01.009Z,34.80
2023-02-27T18:13:28.623Z,28.10
2023-02-27T18:15:56.894Z,19.10
2023-02-27T18:18:24.372Z,15.00
2023-02-27T18:21:06.140Z,17.00
2023-02-27T18:23:33.551Z,30.00
2023-02-27T18:26:00.929Z,31.10
2023-02-27T18:28:28.771Z,35.40
2023-02-27T18:30:56.391Z,30.90
2023-02-27T18:33:24.380Z,26.90
2023-02-27T18:35:51.939Z,23.00
2023-02-27T18:38:19.300Z,23.90
2023-02-27T18:40:46.470Z,36.40
2023-02-27T18:43:14.186Z,48.20
2023-02-27T18:45:41.543Z,50.90
2023-02-27T18:48:08.947Z,59.70
2023-02-27T18:50:36.183Z,52.90
2023-02-27T18:53:03.434Z,50.20
2023-02-27T18:55:30.500Z,58.80
2023-02-27T18:57:57.702Z,62.70
2023-02-27T19:00:24.981Z,64.50
2023-02-27T19:02:52.178Z,57.50
2023-02-27T19:05:19.597Z,57.90
2023-02-27T19:07:46.925Z,54.60
2023-02-27T19:10:15.237Z,53.50
2023-02-27T19:12:42.756Z,48.70
2023-02-27T19:15:11.093Z,46.10
2023-02-27T19:17:38.242Z,39.80
2023-02-27T19:20:06.987Z,34.60
2023-02-27T19:22:34.551Z,47.70
2023-02-27T19:25:01.873Z,60.60
2023-02-27T19:27:29.267Z,56.30
2023-02-27T19:29:56.495Z,58.40
2023-02-27T19:32:23.730Z,58.50
2023-02-27T19:34:51.066Z,56.20
2023-02-27T19:37:18.407Z,68.00
2023-02-27T19:39:46.487Z,71.40
2023-02-27T19:42:13.789Z,143.30
2023-02-27T19:44:41.385Z,181.30
2023-02-27T19:47:08.705Z,228.80
2023-02-27T19:49:35.877Z,162.20
2023-02-27T19:52:03.704Z,104.60
2023-02-27T19:54:30.896Z,109.40
2023-02-27T19:56:58.301Z,105.80
2023-02-27T19:59:25.484Z,98.00
2023-02-27T20:01:53.400Z,90.80
2023-02-27T20:04:20.624Z,62.20
2023-02-27T20:06:50.089Z,50.20
2023-02-27T20:09:18.155Z,35.70
2023-02-27T20:11:46.924Z,51.10
2023-02-27T20:14:15.710Z,46.00
2023-02-27T20:16:43.960Z,42.70
2023-02-27T20:19:14.809Z,31.30
2023-02-27T20:21:42.454Z,32.80
2023-02-27T20:24:14.339Z,30.20
2023-02-27T20:26:44.179Z,18.10
2023-02-27T20:29:15.457Z,16.70
2023-02-27T20:31:46.325Z,17.50
2023-02-27T20:34:15.957Z,21.70
2023-02-27T20:36:43.969Z,20.60
2023-02-27T20:39:12.608Z,22.80
2023-02-27T20:41:40.515Z,26.70
2023-02-27T20:44:08.771Z,25.60
2023-02-27T20:46:36.552Z,19.20
2023-02-27T20:49:06.121Z,14.40
2023-02-27T20:51:36.244Z,11.10
2023-02-27T20:54:06.504Z,12.70
2023-02-27T20:56:41.489Z,10.40
2023-02-27T20:59:14.060Z,10.60
2023-02-27T21:01:42.882Z,11.30
2023-02-27T21:04:10.194Z,24.50
2023-02-27T21:06:37.670Z,55.00
2023-02-27T21:09:06.785Z,61.20
2023-02-27T21:11:34.440Z,29.50
2023-02-27T21:14:06.943Z,34.40
2023-02-27T21:16:34.223Z,32.20
2023-02-27T21:19:01.628Z,36.10
2023-02-27T21:21:34.077Z,74.20
2023-02-27T21:24:01.589Z,49.30
2023-02-27T21:26:35.073Z,48.90
2023-02-27T21:29:12.141Z,37.80
2023-02-27T21:31:41.248Z,37.80
2023-02-27T21:34:14.838Z,43.50
2023-02-27T21:36:44.113Z,39.50
2023-02-27T21:39:20.147Z,39.20
2023-02-27T21:41:47.913Z,30.10
2023-02-27T21:44:18.177Z,21.80
2023-02-27T21:46:45.832Z,20.50
2023-02-27T21:49:18.713Z,31.70
2023-02-27T21:51:46.851Z,133.90
2023-02-27T21:54:15.441Z,95.40
2023-02-27T21:56:43.827Z,68.90
2023-02-27T21:59:11.743Z,124.80
2023-02-27T22:01:39.160Z,176.00
2023-02-27T22:04:07.120Z,96.40
2023-02-27T22:06:35.271Z,72.40
2023-02-27T22:09:05.392Z,120.30
2023-02-27T22:11:34.406Z,106.60
2023-02-27T22:14:02.424Z,94.90
2023-02-27T22:16:29.676Z,101.60
2023-02-27T22:18:56.864Z,111.80
2023-02-27T22:21:27.112Z,155.30
2023-02-27T22:23:56.922Z,190.50
2023-02-27T22:26:28.275Z,194.80
2023-02-27T22:28:57.260Z,197.00
2023-02-27T22:31:28.283Z,157.80
2023-02-27T22:33:59.600Z,178.70
2023-02-27T22:36:29.387Z,166.70
2023-02-27T22:38:57.875Z,151.50
2023-02-27T22:41:28.184Z,154.00
2023-02-27T22:43:55.968Z,148.10
2023-02-27T22:46:28.369Z,174.00
2023-02-27T22:49:03.228Z,152.20
2023-02-27T22:51:31.340Z,138.50
2023-02-27T22:54:01.866Z,165.00
2023-02-27T22:56:29.559Z,263.10
2023-02-27T22:58:57.246Z,266.00
2023-02-27T23:01:28.387Z,234.10
2023-02-27T23:04:01.439Z,256.10
2023-02-27T23:06:31.878Z,270.20
2023-02-27T23:09:00.261Z,285.40
2023-02-27T23:11:27.877Z,280.30
2023-02-27T23:13:55.382Z,271.60
2023-02-27T23:16:22.774Z,271.10
2023-02-27T23:18:52.749Z,269.50
2023-02-27T23:21:24.163Z,265.50
2023-02-27T23:23:53.936Z,260.90
2023-02-27T23:26:21.387Z,256.50
2023-02-27T23:28:48.503Z,218.10
2023-02-27T23:31:16.100Z,206.70
2023-02-27T23:33:43.239Z,182.80
2023-02-27T23:36:10.250Z,172.80
2023-02-27T23:38:37.618Z,169.60
2023-02-27T23:41:09.653Z,172.40
2023-02-27T23:43:36.871Z,184.00
2023-02-27T23:46:12.512Z,181.80
2023-02-27T23:48:40.199Z,163.60
2023-02-27T23:51:09.174Z,140.80
2023-02-27T23:53:40.231Z,132.40
2023-02-27T23:56:15.243Z,117.00
2023-02-27T23:58:42.519Z,87.10
